Time;durP1;ratioP1;P1;durP2;ratioP2;P2;SDS_P1;SDS_P2;PMS_P1;PMS_P2;Temp;Humidity;BMP_temperature;BMP_pressure;BME280_temperature;BME280_humidity;BME280_pressure;Samples;Min_cycle;Max_cycle;Signal;HPM_P1;HPM_P2
2021/10/02 00:46:00;;;;;;;50.17;32.67;;;;;;;;;;761178;180;918602;-64
2021/10/02 00:48:27;;;;;;;45.90;28.27;;;;;;;;;;763194;180;918953;-64
2021/10/02 00:50:58;;;;;;;44.47;26.97;;;;;;;;;;770922;180;919413;-64
2021/10/02 00:53:19;;;;;;;33.40;24.67;;;;;;;;;;733604;187;919399;-64
2021/10/02 00:55:44;;;;;;;28.83;24.10;;;;;;;;;;746568;187;918630;-64
2021/10/02 00:58:11;;;;;;;42.17;24.57;;;;;;;;;;770193;180;924337;-65
2021/10/02 01:00:36;;;;;;;38.23;27.80;;;;;;;;;;770914;180;918827;-64
2021/10/02 01:03:03;;;;;;;33.63;23.30;;;;;;;;;;764559;182;919957;-64
2021/10/02 01:05:30;;;;;;;42.63;29.07;;;;;;;;;;765071;182;915962;-63
2021/10/02 01:07:58;;;;;;;38.77;25.87;;;;;;;;;;764472;183;915221;-64
2021/10/02 01:10:44;;;;;;;37.07;28.40;;;;;;;;;;756975;183;621105;-64
2021/10/02 01:13:13;;;;;;;43.60;26.03;;;;;;;;;;758540;183;919549;-64
2021/10/02 01:15:39;;;;;;;42.23;29.20;;;;;;;;;;762683;180;918578;-63
2021/10/02 01:18:05;;;;;;;38.63;27.23;;;;;;;;;;761592;183;962297;-64
2021/10/02 01:20:32;;;;;;;35.90;26.27;;;;;;;;;;753187;183;919898;-63
2021/10/02 01:22:59;;;;;;;38.10;26.77;;;;;;;;;;761469;183;917274;-64
2021/10/02 01:25:31;;;;;;;38.33;26.70;;;;;;;;;;763631;183;918030;-64
2021/10/02 01:27:57;;;;;;;38.40;27.27;;;;;;;;;;760080;183;918442;-64
2021/10/02 01:33:01;;;;;;;45.03;28.87;;;;;;;;;;768700;180;919579;-63
2021/10/02 01:35:31;;;;;;;54.53;31.60;;;;;;;;;;763206;180;920210;-64
2021/10/02 01:47:09;;;;;;;45.37;29.97;;;;;;;;;;771748;180;915890;-64
2021/10/02 01:48:01;;;;;;;45.17;32.77;;;;;;;;;;761584;180;919949;-64
2021/10/02 01:50:27;;;;;;;49.20;29.47;;;;;;;;;;766022;180;919299;-63
2021/10/02 01:52:53;;;;;;;43.37;28.77;;;;;;;;;;774431;180;918611;-64
2021/10/02 01:55:19;;;;;;;49.77;29.70;;;;;;;;;;770570;180;946460;-64
2021/10/02 01:57:45;;;;;;;48.40;30.33;;;;;;;;;;766403;180;919104;-64
2021/10/02 02:00:11;;;;;;;45.47;27.77;;;;;;;;;;772833;180;918861;-65
2021/10/02 02:02:37;;;;;;;41.20;29.50;;;;;;;;;;761493;183;921010;-64
2021/10/02 02:05:04;;;;;;;45.30;29.50;;;;;;;;;;743562;187;918868;-64
2021/10/02 02:07:29;;;;;;;45.13;29.50;;;;;;;;;;762931;183;918163;-64
2021/10/02 02:09:55;;;;;;;44.30;29.27;;;;;;;;;;747502;183;919302;-65
2021/10/02 02:12:21;;;;;;;46.60;29.43;;;;;;;;;;752052;183;919193;-64
2021/10/02 02:14:48;;;;;;;45.77;29.20;;;;;;;;;;759925;183;919734;-64
2021/10/02 02:17:13;;;;;;;46.87;29.30;;;;;;;;;;769673;183;919317;-65
2021/10/02 02:19:39;;;;;;;40.90;28.57;;;;;;;;;;758482;183;918905;-64
2021/10/02 02:22:04;;;;;;;42.03;28.70;;;;;;;;;;772646;180;919112;-64
2021/10/02 02:24:31;;;;;;;43.78;27.02;;;;;;;;;;766537;180;919215;-63
2021/10/02 02:26:56;;;;;;;41.03;28.30;;;;;;;;;;763539;181;919585;-64
2021/10/02 02:29:22;;;;;;;38.47;28.17;;;;;;;;;;742302;187;920147;-64
2021/10/02 02:31:48;;;;;;;38.57;28.07;;;;;;;;;;762029;183;918706;-63
2021/10/02 02:34:21;;;;;;;42.53;34.42;;;;;;;;;;790169;172;919576;-62
2021/10/02 02:36:47;;;;;;;43.07;29.90;;;;;;;;;;765018;181;919631;-61
2021/10/02 02:39:13;;;;;;;39.60;27.20;;;;;;;;;;772564;180;921436;-62
2021/10/02 02:41:39;;;;;;;36.72;26.60;;;;;;;;;;763249;183;918689;-63
2021/10/02 02:44:05;;;;;;;37.17;26.70;;;;;;;;;;767596;180;919149;-62
2021/10/02 02:46:31;;;;;;;35.33;25.47;;;;;;;;;;767884;179;919112;-62
2021/10/02 02:48:57;;;;;;;35.60;25.67;;;;;;;;;;776838;180;919428;-63
2021/10/02 02:51:23;;;;;;;36.73;26.50;;;;;;;;;;771053;180;919489;-63
2021/10/02 02:53:52;;;;;;;31.47;24.30;;;;;;;;;;771061;181;918826;-63
2021/10/02 02:56:21;;;;;;;35.23;24.93;;;;;;;;;;767628;180;919176;-62
2021/10/02 02:58:47;;;;;;;32.60;23.80;;;;;;;;;;775780;180;919728;-63
2021/10/02 03:01:13;;;;;;;33.83;22.73;;;;;;;;;;771508;180;918439;-62
2021/10/02 03:03:39;;;;;;;31.02;21.73;;;;;;;;;;772510;180;919867;-63
2021/10/02 03:06:05;;;;;;;30.20;22.93;;;;;;;;;;774965;180;918951;-62
2021/10/02 03:08:31;;;;;;;36.27;22.73;;;;;;;;;;767493;179;919984;-62
2021/10/02 03:11:00;;;;;;;34.03;22.93;;;;;;;;;;770791;179;920595;-62
2021/10/02 03:13:23;;;;;;;34.20;23.13;;;;;;;;;;767819;180;920849;-62
2021/10/02 03:15:49;;;;;;;38.13;22.00;;;;;;;;;;775868;180;917520;-61
2021/10/02 03:18:15;;;;;;;32.73;23.40;;;;;;;;;;767161;180;916912;-63
2021/10/02 03:20:40;;;;;;;28.30;19.57;;;;;;;;;;768570;180;922012;-62
2021/10/02 03:23:06;;;;;;;33.40;21.50;;;;;;;;;;774242;180;919659;-62
2021/10/02 03:25:32;;;;;;;28.85;21.58;;;;;;;;;;770597;180;922510;-63
2021/10/02 03:27:58;;;;;;;28.17;21.33;;;;;;;;;;769460;180;921167;-62
2021/10/02 03:30:24;;;;;;;27.07;20.20;;;;;;;;;;772612;180;916302;-62
2021/10/02 03:32:50;;;;;;;32.10;20.67;;;;;;;;;;762717;181;913627;-62
2021/10/02 03:35:16;;;;;;;35.00;22.67;;;;;;;;;;770172;180;922378;-62
2021/10/02 03:37:41;;;;;;;33.80;23.37;;;;;;;;;;770131;180;915776;-62
2021/10/02 03:40:09;;;;;;;35.10;20.97;;;;;;;;;;776375;181;872417;-62
2021/10/02 03:42:33;;;;;;;29.60;19.97;;;;;;;;;;770359;180;920757;-62
2021/10/02 03:44:59;;;;;;;34.03;20.97;;;;;;;;;;774002;178;919168;-62
2021/10/02 03:47:25;;;;;;;25.83;18.98;;;;;;;;;;777160;179;918606;-63
2021/10/02 03:49:51;;;;;;;28.33;20.10;;;;;;;;;;768840;180;919630;-63
2021/10/02 03:52:17;;;;;;;31.63;19.67;;;;;;;;;;772247;180;919235;-62
2021/10/02 03:54:42;;;;;;;34.17;20.90;;;;;;;;;;776138;180;918852;-62
2021/10/02 03:57:08;;;;;;;27.33;20.93;;;;;;;;;;773381;180;919366;-63
2021/10/02 03:59:34;;;;;;;29.15;20.05;;;;;;;;;;771660;179;919694;-62
2021/10/02 04:02:00;;;;;;;26.40;19.30;;;;;;;;;;775624;179;915709;-62
2021/10/02 04:04:26;;;;;;;31.00;20.92;;;;;;;;;;779397;180;918769;-62
2021/10/02 04:06:52;;;;;;;32.20;19.67;;;;;;;;;;772563;179;918851;-61
2021/10/02 04:09:18;;;;;;;34.03;23.17;;;;;;;;;;770221;180;918995;-62
2021/10/02 04:11:44;;;;;;;46.40;26.27;;;;;;;;;;777191;180;626776;-62
2021/10/02 04:14:09;;;;;;;36.73;25.70;;;;;;;;;;768790;180;920662;-63
2021/10/02 04:16:35;;;;;;;41.30;25.63;;;;;;;;;;771452;181;918241;-62
2021/10/02 04:19:01;;;;;;;42.43;28.10;;;;;;;;;;776530;180;917803;-62
2021/10/02 04:21:27;;;;;;;39.77;25.47;;;;;;;;;;773549;180;918552;-63
2021/10/02 04:23:53;;;;;;;38.83;25.43;;;;;;;;;;775150;180;624291;-62
2021/10/02 04:26:19;;;;;;;46.43;28.60;;;;;;;;;;777650;180;619842;-63
2021/10/02 04:28:44;;;;;;;42.80;26.60;;;;;;;;;;774475;180;619896;-62
2021/10/02 04:31:11;;;;;;;38.00;24.67;;;;;;;;;;771490;180;918351;-62
2021/10/02 04:33:36;;;;;;;31.93;20.90;;;;;;;;;;769057;179;923080;-62
2021/10/02 04:36:02;;;;;;;36.20;25.50;;;;;;;;;;774769;180;915072;-62
2021/10/02 04:38:28;;;;;;;37.67;25.50;;;;;;;;;;769478;180;919128;-62
2021/10/02 04:40:54;;;;;;;32.93;22.70;;;;;;;;;;769305;180;919577;-62
2021/10/02 04:43:19;;;;;;;37.77;23.90;;;;;;;;;;779930;179;918979;-62
2021/10/02 04:45:45;;;;;;;38.07;23.67;;;;;;;;;;766974;180;918919;-62
2021/10/02 04:48:11;;;;;;;34.30;23.03;;;;;;;;;;773121;180;914851;-63
2021/10/02 04:50:37;;;;;;;44.37;22.47;;;;;;;;;;776161;180;914397;-62
2021/10/02 04:53:03;;;;;;;34.40;22.50;;;;;;;;;;771375;180;914796;-62
2021/10/02 04:55:29;;;;;;;32.43;22.57;;;;;;;;;;764563;179;918857;-62
2021/10/02 04:57:54;;;;;;;41.70;24.77;;;;;;;;;;768799;180;915677;-62
2021/10/02 05:00:20;;;;;;;36.57;25.50;;;;;;;;;;758134;184;915473;-62
2021/10/02 05:02:46;;;;;;;34.10;23.33;;;;;;;;;;753730;184;917777;-62
2021/10/02 05:05:12;;;;;;;35.43;24.20;;;;;;;;;;750151;185;915962;-62
2021/10/02 05:07:38;;;;;;;33.53;22.83;;;;;;;;;;746187;186;914304;-62
2021/10/02 05:10:04;;;;;;;37.07;24.20;;;;;;;;;;744628;186;916280;-62
2021/10/02 05:12:30;;;;;;;38.83;24.40;;;;;;;;;;744901;187;916437;-63
2021/10/02 05:14:56;;;;;;;36.97;23.52;;;;;;;;;;780037;179;919168;-63
2021/10/02 05:17:22;;;;;;;35.70;24.87;;;;;;;;;;766591;180;915203;-62
2021/10/02 05:19:47;;;;;;;33.47;24.63;;;;;;;;;;773667;180;915421;-62
2021/10/02 05:22:15;;;;;;;41.16;24.48;;;;;;;;;;768574;180;1924416;-62
2021/10/02 05:24:40;;;;;;;31.40;23.50;;;;;;;;;;765224;183;915490;-62
2021/10/02 05:27:08;;;;;;;36.50;22.67;;;;;;;;;;769268;180;914600;-62
2021/10/02 05:29:34;;;;;;;32.77;21.80;;;;;;;;;;769743;180;919531;-63
2021/10/02 05:32:00;;;;;;;35.67;24.77;;;;;;;;;;776141;181;919260;-62
2021/10/02 05:34:26;;;;;;;33.90;22.70;;;;;;;;;;770170;180;914302;-62
2021/10/02 05:36:51;;;;;;;37.23;24.47;;;;;;;;;;770401;180;914331;-62
2021/10/02 05:39:17;;;;;;;29.40;21.90;;;;;;;;;;774087;180;919768;-62
2021/10/02 05:41:43;;;;;;;36.60;22.63;;;;;;;;;;769360;180;921403;-62
2021/10/02 05:44:09;;;;;;;31.50;23.33;;;;;;;;;;768687;180;918890;-62
2021/10/02 05:46:35;;;;;;;32.00;21.80;;;;;;;;;;770215;180;919642;-62
2021/10/02 05:49:01;;;;;;;43.77;23.30;;;;;;;;;;759710;182;918639;-63
2021/10/02 05:51:27;;;;;;;33.40;21.03;;;;;;;;;;755015;184;918909;-63
2021/10/02 05:53:52;;;;;;;25.53;19.17;;;;;;;;;;772029;179;919379;-64
2021/10/02 05:56:18;;;;;;;33.97;22.00;;;;;;;;;;775590;180;919427;-62
2021/10/02 05:58:44;;;;;;;33.60;22.40;;;;;;;;;;769069;180;1021132;-62
2021/10/02 06:01:10;;;;;;;34.93;20.17;;;;;;;;;;771685;180;1019703;-63
2021/10/02 06:03:36;;;;;;;40.17;21.13;;;;;;;;;;773591;181;918605;-62
2021/10/02 06:06:02;;;;;;;31.03;20.17;;;;;;;;;;766272;180;916921;-63
2021/10/02 06:08:27;;;;;;;47.33;22.80;;;;;;;;;;768158;180;918822;-63
2021/10/02 06:10:54;;;;;;;41.00;20.58;;;;;;;;;;771007;179;918514;-61
2021/10/02 06:13:20;;;;;;;29.90;20.20;;;;;;;;;;767762;181;918821;-63
2021/10/02 06:15:46;;;;;;;28.67;21.27;;;;;;;;;;770933;180;918643;-63
2021/10/02 06:18:12;;;;;;;29.13;20.77;;;;;;;;;;769158;181;920247;-63
2021/10/02 06:20:37;;;;;;;31.67;19.70;;;;;;;;;;777193;180;919917;-63
2021/10/02 06:23:04;;;;;;;29.33;19.43;;;;;;;;;;774147;180;919482;-63
2021/10/02 06:25:29;;;;;;;27.73;18.57;;;;;;;;;;771525;181;914656;-63
2021/10/02 06:27:55;;;;;;;25.40;18.57;;;;;;;;;;773705;181;917626;-63
2021/10/02 06:30:21;;;;;;;26.50;19.17;;;;;;;;;;771869;180;631480;-64
2021/10/02 06:32:47;;;;;;;24.87;19.37;;;;;;;;;;768959;181;920593;-63
2021/10/02 06:35:13;;;;;;;29.63;19.17;;;;;;;;;;774328;180;916784;-63
2021/10/02 06:37:39;;;;;;;26.07;16.20;;;;;;;;;;770782;180;921616;-63
2021/10/02 06:40:05;;;;;;;29.13;17.10;;;;;;;;;;771853;180;920231;-63
2021/10/02 06:42:31;;;;;;;26.67;18.07;;;;;;;;;;770019;180;919744;-62
2021/10/02 06:44:57;;;;;;;23.50;16.73;;;;;;;;;;777024;180;919091;-63
2021/10/02 06:47:23;;;;;;;30.83;18.40;;;;;;;;;;770202;181;918927;-62
2021/10/02 06:49:49;;;;;;;21.37;14.98;;;;;;;;;;769810;180;918919;-63
2021/10/02 06:52:15;;;;;;;20.40;14.73;;;;;;;;;;774778;180;919605;-63
2021/10/02 06:54:40;;;;;;;21.47;15.40;;;;;;;;;;769650;181;919872;-64
2021/10/02 06:57:07;;;;;;;26.40;14.90;;;;;;;;;;773340;180;919550;-63
2021/10/02 06:59:32;;;;;;;24.60;15.17;;;;;;;;;;777375;179;919454;-63
2021/10/02 07:01:58;;;;;;;19.40;15.23;;;;;;;;;;768760;180;918966;-63
2021/10/02 07:04:24;;;;;;;21.83;13.70;;;;;;;;;;772153;180;919377;-62
2021/10/02 07:06:50;;;;;;;21.23;15.03;;;;;;;;;;765924;181;917286;-62
2021/10/02 07:09:16;;;;;;;23.10;15.10;;;;;;;;;;778924;180;919906;-63
2021/10/02 07:11:41;;;;;;;21.73;13.33;;;;;;;;;;765979;181;913374;-63
2021/10/02 07:14:07;;;;;;;23.90;14.38;;;;;;;;;;770012;179;924096;-66
2021/10/02 07:16:33;;;;;;;15.30;12.10;;;;;;;;;;772233;180;916458;-65
2021/10/02 07:19:01;;;;;;;25.50;12.37;;;;;;;;;;770040;179;917860;-65
2021/10/02 07:21:25;;;;;;;19.35;12.70;;;;;;;;;;774961;179;914910;-63
2021/10/02 07:23:51;;;;;;;15.50;11.23;;;;;;;;;;778773;180;918290;-63
2021/10/02 07:26:17;;;;;;;19.60;12.10;;;;;;;;;;765301;180;919066;-63
2021/10/02 07:28:42;;;;;;;14.93;11.90;;;;;;;;;;774260;180;918798;-63
2021/10/02 07:31:08;;;;;;;20.17;12.30;;;;;;;;;;769935;179;919169;-62
2021/10/02 07:33:34;;;;;;;15.70;12.00;;;;;;;;;;772828;180;918813;-62
2021/10/02 07:36:00;;;;;;;16.90;11.63;;;;;;;;;;768518;180;919950;-62
2021/10/02 07:38:26;;;;;;;17.57;11.87;;;;;;;;;;769781;180;919317;-62
2021/10/02 07:40:52;;;;;;;24.50;12.00;;;;;;;;;;774711;180;918826;-62
2021/10/02 07:43:17;;;;;;;18.20;11.27;;;;;;;;;;763071;181;1122676;-63
2021/10/02 07:45:43;;;;;;;14.60;12.10;;;;;;;;;;771282;181;918636;-63
2021/10/02 07:48:09;;;;;;;17.07;11.43;;;;;;;;;;775419;180;920279;-62
2021/10/02 07:50:35;;;;;;;14.70;11.27;;;;;;;;;;771435;180;919807;-63
2021/10/02 07:53:01;;;;;;;15.23;12.20;;;;;;;;;;771696;180;920792;-63
2021/10/02 07:55:27;;;;;;;19.30;12.87;;;;;;;;;;774736;180;919473;-64
2021/10/02 07:57:53;;;;;;;20.43;11.63;;;;;;;;;;769175;180;920348;-63
2021/10/02 08:00:18;;;;;;;21.60;12.17;;;;;;;;;;767070;181;927763;-63
2021/10/02 08:02:44;;;;;;;18.15;11.52;;;;;;;;;;767067;181;918424;-63
2021/10/02 08:05:10;;;;;;;14.90;10.80;;;;;;;;;;775316;180;918025;-63
2021/10/02 08:07:37;;;;;;;15.57;12.43;;;;;;;;;;769629;180;1113060;-62
2021/10/02 08:10:02;;;;;;;28.20;11.87;;;;;;;;;;768888;180;918728;-63
2021/10/02 08:12:28;;;;;;;12.57;9.93;;;;;;;;;;770810;180;919790;-63
2021/10/02 08:14:53;;;;;;;26.77;11.20;;;;;;;;;;765014;181;919026;-63
2021/10/02 08:17:19;;;;;;;23.20;11.40;;;;;;;;;;770713;180;920414;-63
2021/10/02 08:19:45;;;;;;;20.30;10.60;;;;;;;;;;772240;181;918162;-62
2021/10/02 08:22:11;;;;;;;21.10;12.43;;;;;;;;;;768004;180;929536;-63
2021/10/02 08:24:39;;;;;;;13.10;9.60;;;;;;;;;;771847;180;919315;-63
2021/10/02 08:27:03;;;;;;;16.57;11.90;;;;;;;;;;769734;180;919980;-63
2021/10/02 08:29:30;;;;;;;16.10;11.93;;;;;;;;;;771203;181;918758;-64
2021/10/02 08:31:55;;;;;;;17.73;11.87;;;;;;;;;;773466;179;921673;-65
2021/10/02 08:34:20;;;;;;;19.27;10.85;;;;;;;;;;770779;179;1019283;-65
2021/10/02 08:36:46;;;;;;;15.70;10.60;;;;;;;;;;778074;180;919765;-63
2021/10/02 08:39:13;;;;;;;18.43;11.10;;;;;;;;;;773651;180;917132;-63
2021/10/02 08:41:38;;;;;;;16.25;11.38;;;;;;;;;;771194;181;916109;-63
2021/10/02 08:44:04;;;;;;;16.40;11.40;;;;;;;;;;774063;181;919091;-63
2021/10/02 08:46:31;;;;;;;20.43;11.07;;;;;;;;;;771987;181;919727;-62
2021/10/02 08:48:58;;;;;;;19.10;11.80;;;;;;;;;;768251;181;919250;-63
2021/10/02 08:51:23;;;;;;;16.20;12.00;;;;;;;;;;772795;180;915029;-62
2021/10/02 08:53:49;;;;;;;20.50;11.77;;;;;;;;;;777003;180;916429;-63
2021/10/02 08:56:15;;;;;;;13.73;10.30;;;;;;;;;;766589;181;919279;-64
2021/10/02 08:58:41;;;;;;;28.20;9.73;;;;;;;;;;772261;179;919318;-63
2021/10/02 09:01:07;;;;;;;14.70;10.50;;;;;;;;;;776607;180;918884;-63
2021/10/02 09:03:33;;;;;;;14.43;11.27;;;;;;;;;;770811;180;918393;-62
2021/10/02 09:05:59;;;;;;;18.00;10.77;;;;;;;;;;767820;181;919422;-63
2021/10/02 09:08:24;;;;;;;13.63;9.77;;;;;;;;;;776428;180;919466;-63
2021/10/02 09:10:50;;;;;;;18.87;10.90;;;;;;;;;;770117;180;919955;-65
2021/10/02 09:13:16;;;;;;;16.33;10.93;;;;;;;;;;766780;181;918044;-64
2021/10/02 09:15:42;;;;;;;13.00;9.17;;;;;;;;;;774195;181;906135;-63
2021/10/02 09:18:08;;;;;;;14.13;10.20;;;;;;;;;;768523;180;921186;-64
2021/10/02 09:20:34;;;;;;;14.20;10.87;;;;;;;;;;770502;180;919667;-63
2021/10/02 09:22:59;;;;;;;22.20;8.43;;;;;;;;;;767997;180;919250;-64
2021/10/02 09:25:25;;;;;;;14.17;9.40;;;;;;;;;;772069;181;918831;-62
2021/10/02 09:27:57;;;;;;;13.53;9.07;;;;;;;;;;769356;181;919675;-63
2021/10/02 09:30:23;;;;;;;13.90;8.13;;;;;;;;;;769214;181;929889;-64
2021/10/02 09:32:49;;;;;;;14.50;10.07;;;;;;;;;;774096;180;918084;-65
2021/10/02 09:35:15;;;;;;;14.20;9.13;;;;;;;;;;767444;181;921126;-63
2021/10/02 09:37:41;;;;;;;13.40;9.10;;;;;;;;;;770589;180;919346;-63
2021/10/02 09:40:08;;;;;;;12.77;7.90;;;;;;;;;;769242;180;917520;-65
2021/10/02 09:42:35;;;;;;;16.03;8.97;;;;;;;;;;775778;178;918212;-65
2021/10/02 09:45:01;;;;;;;14.32;8.48;;;;;;;;;;771079;180;918938;-64
2021/10/02 09:47:27;;;;;;;11.60;8.17;;;;;;;;;;772603;180;918656;-64
2021/10/02 09:49:53;;;;;;;16.30;7.90;;;;;;;;;;779246;180;918607;-63
2021/10/02 09:52:24;;;;;;;16.87;7.73;;;;;;;;;;770538;180;919287;-65
2021/10/02 09:54:50;;;;;;;18.50;9.70;;;;;;;;;;768985;180;919233;-65
2021/10/02 09:57:16;;;;;;;15.70;9.10;;;;;;;;;;767665;180;920204;-64
2021/10/02 09:59:42;;;;;;;13.50;8.20;;;;;;;;;;769686;180;918812;-62
2021/10/02 10:02:14;;;;;;;12.70;8.23;;;;;;;;;;769619;181;918933;-63
2021/10/02 10:04:40;;;;;;;8.90;6.60;;;;;;;;;;770058;180;919332;-64
2021/10/02 10:07:05;;;;;;;11.30;7.90;;;;;;;;;;776181;180;919522;-64
2021/10/02 10:09:31;;;;;;;10.90;7.70;;;;;;;;;;770480;180;919753;-62
2021/10/02 10:11:57;;;;;;;15.93;8.20;;;;;;;;;;770433;180;919580;-65
2021/10/02 10:14:23;;;;;;;10.40;8.10;;;;;;;;;;768550;181;1020818;-64
2021/10/02 10:16:49;;;;;;;15.40;8.97;;;;;;;;;;776873;180;1002208;-63
2021/10/02 10:19:15;;;;;;;10.83;8.33;;;;;;;;;;769127;180;988002;-64
2021/10/02 10:21:41;;;;;;;14.03;8.53;;;;;;;;;;764992;181;997095;-64
2021/10/02 10:24:07;;;;;;;11.43;7.40;;;;;;;;;;776311;180;918868;-63
2021/10/02 10:26:33;;;;;;;12.97;8.40;;;;;;;;;;769371;181;918874;-63
2021/10/02 10:28:59;;;;;;;16.77;8.67;;;;;;;;;;764988;180;919404;-64
2021/10/02 10:31:25;;;;;;;13.30;8.97;;;;;;;;;;769662;181;919456;-64
2021/10/02 10:33:52;;;;;;;13.57;8.67;;;;;;;;;;769168;180;922451;-64
2021/10/02 10:36:17;;;;;;;10.10;7.80;;;;;;;;;;771729;180;918696;-64
2021/10/02 10:38:43;;;;;;;10.87;6.53;;;;;;;;;;771078;180;918410;-65
2021/10/02 10:41:09;;;;;;;11.80;7.40;;;;;;;;;;776755;181;988451;-64
2021/10/02 10:43:35;;;;;;;12.43;8.10;;;;;;;;;;772498;180;1039124;-64
2021/10/02 10:46:01;;;;;;;11.83;9.37;;;;;;;;;;766857;180;918421;-65
2021/10/02 10:48:26;;;;;;;13.13;7.27;;;;;;;;;;774343;180;919656;-65
2021/10/02 10:50:52;;;;;;;22.67;8.30;;;;;;;;;;770392;181;929641;-62
2021/10/02 10:53:18;;;;;;;13.50;7.00;;;;;;;;;;770261;179;920076;-63
2021/10/02 10:55:50;;;;;;;9.73;6.23;;;;;;;;;;778424;179;919503;-65
2021/10/02 10:58:20;;;;;;;9.70;6.40;;;;;;;;;;779784;179;919504;-65
2021/10/02 11:00:46;;;;;;;8.30;7.27;;;;;;;;;;772793;179;938934;-65
2021/10/02 11:03:13;;;;;;;8.30;7.10;;;;;;;;;;771691;180;919402;-64
2021/10/02 11:05:53;;;;;;;9.50;7.03;;;;;;;;;;776376;180;919014;-63
2021/10/02 11:08:20;;;;;;;8.80;5.60;;;;;;;;;;776860;180;919712;-66
2021/10/02 11:10:45;;;;;;;6.25;5.20;;;;;;;;;;770083;180;918435;-66
2021/10/02 11:13:11;;;;;;;8.57;6.18;;;;;;;;;;769633;181;919488;-66
2021/10/02 11:15:37;;;;;;;9.07;5.40;;;;;;;;;;771709;180;920209;-65
2021/10/02 11:18:03;;;;;;;8.30;5.40;;;;;;;;;;772362;180;1004361;-66
2021/10/02 11:20:29;;;;;;;8.73;6.10;;;;;;;;;;771536;179;934646;-67
2021/10/02 11:23:05;;;;;;;8.87;6.27;;;;;;;;;;765520;180;985329;-66
2021/10/02 11:25:27;;;;;;;10.80;7.13;;;;;;;;;;774473;180;917093;-67
2021/10/02 11:27:53;;;;;;;16.73;5.70;;;;;;;;;;767953;180;950022;-67
2021/10/02 11:30:19;;;;;;;8.63;6.10;;;;;;;;;;766733;180;921164;-65
2021/10/02 11:32:45;;;;;;;10.33;6.77;;;;;;;;;;769902;181;917630;-65
2021/10/02 11:35:11;;;;;;;7.93;5.35;;;;;;;;;;769146;180;918042;-67
2021/10/02 11:37:43;;;;;;;7.77;5.80;;;;;;;;;;768191;181;920517;-66
2021/10/02 11:40:15;;;;;;;8.20;6.10;;;;;;;;;;772882;179;918541;-67
2021/10/02 11:42:41;;;;;;;9.17;6.43;;;;;;;;;;773002;179;920425;-67
2021/10/02 11:45:06;;;;;;;13.37;6.77;;;;;;;;;;779208;180;918820;-67
2021/10/02 11:47:34;;;;;;;9.07;5.90;;;;;;;;;;773188;180;920750;-68
2021/10/02 11:50:06;;;;;;;8.70;5.90;;;;;;;;;;776936;180;628372;-66
2021/10/02 11:52:31;;;;;;;7.10;5.90;;;;;;;;;;776667;180;919052;-66
2021/10/02 11:54:57;;;;;;;7.67;6.23;;;;;;;;;;769910;180;1067363;-66
2021/10/02 11:57:23;;;;;;;8.77;6.45;;;;;;;;;;760037;183;919880;-67
2021/10/02 11:59:49;;;;;;;12.30;6.30;;;;;;;;;;767449;181;921557;-68
2021/10/02 12:02:15;;;;;;;9.47;6.60;;;;;;;;;;768714;181;919977;-67
2021/10/02 12:04:41;;;;;;;12.20;6.40;;;;;;;;;;766494;179;920023;-66
2021/10/02 12:07:06;;;;;;;12.63;6.17;;;;;;;;;;771126;179;940825;-67
2021/10/02 12:09:32;;;;;;;12.47;6.00;;;;;;;;;;778791;179;917768;-66
2021/10/02 12:11:58;;;;;;;7.70;6.47;;;;;;;;;;770507;179;918482;-66
2021/10/02 12:14:24;;;;;;;8.25;5.60;;;;;;;;;;772258;179;918407;-67
2021/10/02 12:16:51;;;;;;;7.97;5.97;;;;;;;;;;776731;179;913858;-66
2021/10/02 12:19:20;;;;;;;11.37;6.43;;;;;;;;;;769413;179;918221;-66
2021/10/02 12:21:46;;;;;;;7.80;5.50;;;;;;;;;;771734;179;920274;-66
2021/10/02 12:24:18;;;;;;;8.60;6.20;;;;;;;;;;770226;180;920529;-67
2021/10/02 12:26:44;;;;;;;11.63;6.57;;;;;;;;;;778395;180;917455;-66
2021/10/02 12:29:09;;;;;;;11.43;6.80;;;;;;;;;;772945;180;918775;-66
2021/10/02 12:31:41;;;;;;;9.57;6.90;;;;;;;;;;764675;181;917975;-66
2021/10/02 12:34:12;;;;;;;8.10;6.30;;;;;;;;;;771908;180;919663;-68
2021/10/02 12:36:37;;;;;;;10.17;6.60;;;;;;;;;;775764;180;916541;-68
2021/10/02 12:39:03;;;;;;;9.40;7.00;;;;;;;;;;770834;180;917875;-68
2021/10/02 12:41:29;;;;;;;7.73;6.03;;;;;;;;;;768918;180;918973;-67
2021/10/02 12:43:55;;;;;;;10.20;6.47;;;;;;;;;;774569;180;914836;-67
2021/10/02 12:46:21;;;;;;;9.20;5.90;;;;;;;;;;769151;179;919569;-68
2021/10/02 12:48:47;;;;;;;13.77;6.60;;;;;;;;;;766665;179;918557;-68
2021/10/02 12:51:12;;;;;;;10.37;6.43;;;;;;;;;;767497;181;920834;-67
2021/10/02 12:53:39;;;;;;;8.90;6.40;;;;;;;;;;761014;184;920113;-66
2021/10/02 12:56:11;;;;;;;10.70;5.77;;;;;;;;;;770784;180;930395;-67
2021/10/02 12:58:36;;;;;;;8.98;6.35;;;;;;;;;;771924;179;919781;-67
2021/10/02 13:01:03;;;;;;;10.90;7.20;;;;;;;;;;765459;181;916296;-67
2021/10/02 13:03:29;;;;;;;14.70;6.93;;;;;;;;;;752554;181;918875;-66
2021/10/02 13:05:55;;;;;;;12.67;6.60;;;;;;;;;;770612;181;919584;-66
2021/10/02 13:08:22;;;;;;;8.23;6.07;;;;;;;;;;770178;180;919662;-67
2021/10/02 13:10:48;;;;;;;10.20;6.10;;;;;;;;;;777106;180;919572;-67
2021/10/02 13:13:12;;;;;;;12.53;7.53;;;;;;;;;;771572;181;920672;-67
2021/10/02 13:15:38;;;;;;;8.17;6.33;;;;;;;;;;769390;181;919318;-67
2021/10/02 13:18:14;;;;;;;9.23;6.43;;;;;;;;;;776637;179;918709;-68
2021/10/02 13:20:55;;;;;;;14.57;7.33;;;;;;;;;;779688;179;919865;-66
2021/10/02 13:23:20;;;;;;;9.10;6.63;;;;;;;;;;770647;180;919208;-67
2021/10/02 13:25:47;;;;;;;12.80;6.80;;;;;;;;;;772448;180;918708;-66
2021/10/02 13:28:18;;;;;;;11.80;7.23;;;;;;;;;;773542;180;915440;-68
2021/10/02 13:30:43;;;;;;;15.60;7.13;;;;;;;;;;778302;180;916180;-68
2021/10/02 13:33:09;;;;;;;12.50;6.70;;;;;;;;;;767841;180;915726;-67
2021/10/02 13:35:36;;;;;;;10.17;7.13;;;;;;;;;;773147;180;910920;-66
2021/10/02 13:38:01;;;;;;;8.93;6.70;;;;;;;;;;774948;181;916019;-68
2021/10/02 13:40:28;;;;;;;15.27;7.53;;;;;;;;;;763797;181;920804;-67
2021/10/02 13:42:54;;;;;;;12.10;9.40;;;;;;;;;;763785;181;916289;-67
2021/10/02 13:45:24;;;;;;;9.77;7.67;;;;;;;;;;763902;179;915759;-69
2021/10/02 13:47:54;;;;;;;9.90;7.00;;;;;;;;;;778665;180;915331;-67
2021/10/02 13:50:20;;;;;;;7.87;6.30;;;;;;;;;;768186;180;915858;-67
2021/10/02 13:52:46;;;;;;;9.43;6.83;;;;;;;;;;771535;181;915595;-69
2021/10/02 13:55:12;;;;;;;10.10;6.33;;;;;;;;;;768315;180;1018423;-69
2021/10/02 13:57:38;;;;;;;9.00;6.30;;;;;;;;;;768147;183;918290;-67
2021/10/02 14:00:04;;;;;;;11.33;7.03;;;;;;;;;;772706;179;915138;-68
2021/10/02 14:02:30;;;;;;;9.70;6.83;;;;;;;;;;776070;179;915725;-67
2021/10/02 14:04:56;;;;;;;13.17;6.47;;;;;;;;;;774676;180;915496;-68
2021/10/02 14:07:22;;;;;;;9.23;6.93;;;;;;;;;;768735;180;915394;-67
2021/10/02 14:09:48;;;;;;;14.57;7.73;;;;;;;;;;769427;181;925528;-68
2021/10/02 14:12:14;;;;;;;12.63;6.93;;;;;;;;;;773084;180;915544;-67
2021/10/02 14:14:41;;;;;;;16.20;6.80;;;;;;;;;;770493;180;1119239;-68
2021/10/02 14:17:06;;;;;;;10.90;7.00;;;;;;;;;;770982;180;943818;-67
2021/10/02 14:19:32;;;;;;;8.90;6.93;;;;;;;;;;772562;180;913196;-67
2021/10/02 14:21:58;;;;;;;9.87;6.77;;;;;;;;;;762316;182;915880;-68
2021/10/02 14:24:23;;;;;;;12.57;7.40;;;;;;;;;;768258;181;918560;-67
2021/10/02 14:26:49;;;;;;;10.43;7.03;;;;;;;;;;770808;180;921416;-67
2021/10/02 14:29:15;;;;;;;8.93;7.00;;;;;;;;;;777694;180;913705;-67
2021/10/02 14:31:41;;;;;;;9.17;6.90;;;;;;;;;;774496;179;909042;-67
2021/10/02 14:34:07;;;;;;;13.13;7.00;;;;;;;;;;769674;179;911292;-66
2021/10/02 14:36:33;;;;;;;13.20;7.57;;;;;;;;;;777943;180;894990;-67
2021/10/02 14:38:58;;;;;;;13.03;7.37;;;;;;;;;;770067;180;918820;-67
2021/10/02 14:41:24;;;;;;;9.07;6.77;;;;;;;;;;771406;180;919384;-67
2021/10/02 14:43:50;;;;;;;10.03;6.03;;;;;;;;;;773482;180;918414;-68
2021/10/02 14:46:16;;;;;;;12.07;6.97;;;;;;;;;;768015;181;919794;-68
2021/10/02 14:48:42;;;;;;;12.13;6.50;;;;;;;;;;772384;181;918708;-67
2021/10/02 14:51:08;;;;;;;12.47;6.67;;;;;;;;;;771916;180;925031;-66
2021/10/02 14:53:33;;;;;;;8.87;6.97;;;;;;;;;;774870;181;942650;-68
2021/10/02 14:55:59;;;;;;;13.10;7.50;;;;;;;;;;769264;180;918567;-68
2021/10/02 14:58:25;;;;;;;8.70;6.80;;;;;;;;;;771589;181;920406;-68
2021/10/02 15:00:51;;;;;;;8.40;6.63;;;;;;;;;;776659;180;908004;-68